Time;durP1;ratioP1;P1;durP2;ratioP2;P2;SDS_P1;SDS_P2;PMS_P1;PMS_P2;Temp;Humidity;BMP_temperature;BMP_pressure;BME280_temperature;BME280_humidity;BME280_pressure;Samples;Min_cycle;Max_cycle;Signal;HPM_P1;HPM_P2
2022/06/10 00:00:49;;;;;;;21.67;8.77;;;20.70;99.90;21.00;98432.00;;;;4905482;28;87600;-56
2022/06/10 00:03:18;;;;;;;22.67;8.23;;;20.70;99.90;20.90;98423.00;;;;4920016;28;88040;-54
2022/06/10 00:05:49;;;;;;;17.63;7.85;;;20.70;99.90;20.90;98421.00;;;;4922238;28;87579;-59
2022/06/10 00:08:24;;;;;;;20.13;7.70;;;20.70;99.90;20.90;98430.00;;;;4906452;28;87257;-57
2022/06/10 00:10:51;;;;;;;13.88;7.57;;;20.70;99.90;20.90;98421.00;;;;4922552;28;87002;-57
2022/06/10 00:13:20;;;;;;;18.63;7.40;;;20.70;99.90;20.90;98432.00;;;;4922495;28;87913;-58
2022/06/10 00:15:48;;;;;;;18.67;7.60;;;20.70;99.90;20.90;98431.00;;;;4921620;28;89243;-60
2022/06/10 00:18:16;;;;;;;23.15;7.38;;;20.70;99.90;21.00;98432.00;;;;4922287;28;88312;-59
2022/06/10 00:20:43;;;;;;;17.02;6.70;;;20.70;99.90;21.00;98438.00;;;;4922478;28;87097;-58
2022/06/10 00:23:09;;;;;;;14.77;8.05;;;20.70;99.90;21.00;98432.00;;;;4921986;28;87565;-59
2022/06/10 00:25:37;;;;;;;21.35;7.80;;;20.80;99.90;21.10;98431.00;;;;4920981;28;87890;-59
2022/06/10 00:28:05;;;;;;;19.50;8.00;;;20.80;99.90;21.10;98437.00;;;;4921541;28;87560;-59
2022/06/10 00:30:31;;;;;;;18.90;7.75;;;20.80;99.90;21.10;98441.00;;;;4921765;28;86956;-59
2022/06/10 00:32:59;;;;;;;23.70;8.13;;;20.80;99.90;21.00;98450.00;;;;4924332;28;86630;-60
2022/06/10 00:35:27;;;;;;;20.55;7.50;;;20.70;99.90;20.90;98437.00;;;;4924508;28;87540;-58
2022/06/10 00:37:54;;;;;;;27.73;9.02;;;20.70;99.90;20.80;98444.00;;;;4922678;28;87512;-59
2022/06/10 00:40:30;;;;;;;15.07;7.72;;;20.60;99.90;20.90;98446.00;;;;4907162;28;88059;-59
2022/06/10 00:42:56;;;;;;;13.88;7.95;;;20.60;99.90;20.90;98452.00;;;;4925617;28;87155;-57
2022/06/10 00:45:57;;;;;;;17.75;6.65;;;20.60;99.90;20.90;98443.00;;;;4924584;28;87808;-56
2022/06/10 00:48:27;;;;;;;16.95;6.88;;;20.60;99.90;20.90;98445.00;;;;4925559;28;87399;-57
2022/06/10 00:50:55;;;;;;;12.95;6.78;;;20.60;99.90;20.90;98450.00;;;;4892587;28;87030;-57
2022/06/10 00:53:32;;;;;;;15.82;6.60;;;20.60;99.90;20.80;98448.00;;;;4925566;28;87443;-57
2022/06/10 00:56:01;;;;;;;17.08;7.78;;;20.60;99.90;20.80;98458.00;;;;4925012;28;87939;-57
2022/06/10 00:58:53;;;;;;;14.00;7.35;;;20.60;99.90;20.80;98457.00;;;;4907159;28;87335;-56
2022/06/10 01:01:22;;;;;;;12.30;6.53;;;20.50;99.90;20.80;98472.00;;;;4916281;28;87275;-56
2022/06/10 01:03:50;;;;;;;11.90;6.88;;;20.50;99.90;20.70;98464.00;;;;4925222;28;87107;-57
2022/06/10 01:06:16;;;;;;;12.18;6.22;;;20.40;99.90;20.60;98470.00;;;;4924121;28;89368;-56
2022/06/10 01:08:44;;;;;;;11.93;6.00;;;20.40;99.90;20.60;98478.00;;;;4924963;28;87066;-57
2022/06/10 01:11:34;;;;;;;10.00;6.53;;;20.30;99.90;20.60;98488.00;;;;4925144;28;87006;-60
2022/06/10 01:14:36;;;;;;;9.90;6.40;;;20.30;99.90;20.60;98481.00;;;;4916038;28;87202;-59
2022/06/10 01:17:37;;;;;;;;;;;20.30;99.90;20.50;98496.00;;;;4922720;28;87544;-60
2022/06/10 01:20:38;;;;;;;10.03;6.17;;;20.20;99.90;20.50;98491.00;;;;4864094;28;87157;-60
2022/06/10 01:23:47;;;;;;;10.18;6.13;;;20.20;99.90;20.50;98491.00;;;;4923771;28;87004;-60
2022/06/10 01:27:48;;;;;;;10.95;6.30;;;20.20;99.90;20.50;98497.00;;;;4919278;28;86828;-59
2022/06/10 01:29:40;;;;;;;10.80;6.55;;;20.20;99.90;20.40;98495.00;;;;4920057;28;87078;-60
2022/06/10 01:32:28;;;;;;;9.25;6.28;;;20.20;99.90;20.40;98490.00;;;;4919468;28;87455;-61
2022/06/10 01:35:36;;;;;;;10.73;6.30;;;20.20;99.90;20.40;98503.00;;;;4906459;28;87961;-60
2022/06/10 01:38:16;;;;;;;8.52;6.20;;;20.20;99.90;20.30;98499.00;;;;4876242;28;87169;-60
2022/06/10 01:41:22;;;;;;;11.30;5.93;;;20.10;99.90;20.10;98484.00;;;;4910766;28;87683;-60
2022/06/10 01:44:22;;;;;;;9.25;6.10;;;19.90;99.90;20.00;98491.00;;;;4912952;28;87526;-59
2022/06/10 01:47:13;;;;;;;9.00;5.78;;;19.80;99.90;20.00;98496.00;;;;4898345;28;87809;-60
2022/06/10 01:50:16;;;;;;;11.35;6.15;;;19.70;99.90;20.10;98501.00;;;;4887384;28;87054;-60
2022/06/10 01:52:48;;;;;;;7.65;5.32;;;19.90;99.90;20.20;98500.00;;;;4891179;28;87611;-60
2022/06/10 01:55:45;;;;;;;8.27;5.22;;;19.90;99.90;20.20;98494.00;;;;4891521;28;88386;-59
2022/06/10 01:58:25;;;;;;;9.18;6.00;;;19.90;99.90;20.10;98476.00;;;;4897652;28;87035;-59
2022/06/10 02:00:59;;;;;;;9.77;5.78;;;19.80;99.90;19.80;98476.00;;;;4921412;28;87897;-60
2022/06/10 02:03:33;;;;;;;10.15;6.05;;;19.60;99.90;19.60;98477.00;;;;4902176;28;88735;-60
2022/06/10 02:06:05;;;;;;;7.25;5.68;;;19.50;99.90;19.50;98471.00;;;;4901282;28;88352;-60
2022/06/10 02:08:56;;;;;;;13.27;6.20;;;19.40;99.90;19.50;98474.00;;;;4892004;28;86963;-60
2022/06/10 02:11:28;;;;;;;12.07;6.50;;;19.30;99.90;19.40;98463.00;;;;4888167;28;87497;-60
2022/06/10 02:13:57;;;;;;;10.20;6.10;;;19.30;99.90;19.40;98482.00;;;;4869892;28;87630;-60
2022/06/10 02:16:30;;;;;;;11.45;6.30;;;19.30;99.90;19.40;98498.00;;;;4907901;28;87408;-60
2022/06/10 02:19:11;;;;;;;6.78;5.32;;;19.20;99.90;19.30;98504.00;;;;4918279;28;87012;-60
2022/06/10 02:21:51;;;;;;;8.55;6.13;;;19.20;99.90;19.30;98498.00;;;;4894056;28;86293;-60
2022/06/10 02:24:34;;;;;;;8.68;5.57;;;19.10;99.90;19.30;98494.00;;;;4909060;28;87885;-60
2022/06/10 02:27:07;;;;;;;7.70;5.75;;;19.20;99.90;19.40;98507.00;;;;4895880;28;90618;-60
2022/06/10 02:29:45;;;;;;;9.93;5.82;;;19.20;99.90;19.40;98502.00;;;;4911296;28;88064;-60
2022/06/10 02:32:11;;;;;;;11.65;6.88;;;19.20;99.90;19.50;98513.00;;;;4893400;28;87209;-58
2022/06/10 02:34:37;;;;;;;7.18;6.05;;;19.30;99.90;19.50;98521.00;;;;4909573;28;87562;-58
2022/06/10 02:37:27;;;;;;;10.85;5.78;;;19.40;99.90;19.60;98524.00;;;;4912313;28;87419;-59
2022/06/10 02:40:14;;;;;;;9.80;5.35;;;19.40;99.90;19.70;98513.00;;;;4913337;28;87020;-59
2022/06/10 02:43:04;;;;;;;8.13;5.43;;;19.50;99.90;19.60;98514.00;;;;4906734;28;87024;-59
2022/06/10 02:46:10;;;;;;;7.68;5.20;;;19.40;99.90;19.90;98508.00;;;;4923082;28;87704;-59
2022/06/10 02:49:15;;;;;;;8.13;5.85;;;19.70;99.90;20.40;98523.00;;;;4900594;28;88136;-60
2022/06/10 02:51:42;;;;;;;11.63;6.90;;;20.10;99.90;20.30;98530.00;;;;4902765;28;87455;-59
2022/06/10 02:54:16;;;;;;;10.40;7.07;;;20.10;99.90;20.10;98539.00;;;;4923102;28;87527;-60
2022/06/10 02:56:42;;;;;;;10.07;6.53;;;19.90;99.90;20.00;98528.00;;;;4906084;28;89913;-59
2022/06/10 03:02:00;;;;;;;13.32;7.00;;;19.70;99.90;20.00;98514.00;;;;4909378;28;87007;-60
2022/06/10 03:04:35;;;;;;;;;;;19.80;99.90;20.20;98511.00;;;;4924020;28;86947;-59
2022/06/10 03:07:15;;;;;;;9.60;6.45;;;19.90;99.90;20.30;98502.00;;;;4923773;28;87804;-60
2022/06/10 03:10:06;;;;;;;11.23;6.50;;;20.00;99.90;20.60;98490.00;;;;4906681;28;87477;-60
2022/06/10 03:13:04;;;;;;;7.22;5.47;;;20.40;99.90;21.20;98488.00;;;;4906475;28;87212;-59
2022/06/10 03:16:09;;;;;;;7.78;5.55;;;20.90;99.90;22.00;98479.00;;;;4906271;28;86376;-60
2022/06/10 03:19:20;;;;;;;7.45;5.78;;;21.60;99.90;22.60;98478.00;;;;4892926;28;88161;-60
2022/06/10 03:22:12;;;;;;;8.27;5.90;;;22.10;99.90;23.40;98477.00;;;;4880346;28;88411;-60
2022/06/10 03:24:59;;;;;;;8.15;5.22;;;22.90;99.90;23.60;98475.00;;;;4905657;28;88071;-60
2022/06/10 03:27:58;;;;;;;7.80;5.10;;;23.10;99.90;23.80;98477.00;;;;4915199;28;86973;-60
2022/06/10 03:30:31;;;;;;;7.18;4.75;;;23.30;99.90;23.70;98475.00;;;;4896279;28;87618;-60
2022/06/10 03:33:23;;;;;;;5.57;4.35;;;23.30;99.90;24.00;98476.00;;;;4905282;28;87366;-59
2022/06/10 03:36:03;;;;;;;5.65;4.32;;;23.40;99.90;23.60;98480.00;;;;4905333;28;86982;-60
2022/06/10 03:38:38;;;;;;;8.00;4.70;;;23.10;99.90;23.50;98486.00;;;;4921192;28;87367;-59
2022/06/10 03:41:05;;;;;;;5.78;4.55;;;23.10;99.90;23.40;98491.00;;;;4905003;28;88157;-59
2022/06/10 03:43:39;;;;;;;6.57;4.90;;;23.00;99.90;23.30;98496.00;;;;4922883;28;87502;-60
2022/06/10 03:46:10;;;;;;;8.25;5.40;;;22.90;99.90;23.10;98491.00;;;;4901402;28;87028;-60
2022/06/10 03:48:41;;;;;;;7.93;5.70;;;22.60;99.90;22.90;98498.00;;;;4905887;28;87222;-60
2022/06/10 03:51:08;;;;;;;;;;;22.60;99.90;23.50;98491.00;;;;4913869;28;88667;-61
2022/06/10 03:53:34;;;;;;;8.18;4.90;;;23.00;99.90;23.60;98500.00;;;;4923438;28;87765;-60
2022/06/10 03:56:00;;;;;;;7.60;5.38;;;23.10;99.90;23.70;98503.00;;;;4922630;28;86957;-60
2022/06/10 03:58:27;;;;;;;6.80;5.43;;;23.10;99.90;23.20;98508.00;;;;4889469;28;87891;-60
2022/06/10 04:00:53;;;;;;;9.77;5.72;;;22.90;99.90;23.50;98500.00;;;;4920016;28;86956;-60
2022/06/10 04:03:20;;;;;;;7.25;5.78;;;23.10;99.90;23.90;98516.00;;;;4911024;28;87505;-60
2022/06/10 04:05:46;;;;;;;8.30;5.40;;;23.30;99.90;24.10;98506.00;;;;4921888;28;87078;-60
2022/06/10 04:08:12;;;;;;;8.18;5.50;;;23.60;99.90;24.10;98510.00;;;;4926188;28;86427;-60
2022/06/10 04:10:38;;;;;;;7.82;5.70;;;23.60;99.90;24.10;98507.00;;;;4925501;28;87535;-59
2022/06/10 04:13:04;;;;;;;8.18;5.88;;;23.60;99.90;24.00;98513.00;;;;4925603;28;87248;-59
2022/06/10 04:15:32;;;;;;;6.90;6.20;;;23.60;99.90;23.90;98510.00;;;;4925074;28;88259;-59
2022/06/10 04:17:58;;;;;;;6.95;6.03;;;23.50;99.90;23.90;98520.00;;;;4896029;28;87011;-60
2022/06/10 04:20:30;;;;;;;9.20;5.90;;;23.50;99.90;24.60;98505.00;;;;4925111;28;87681;-60
2022/06/10 04:22:57;;;;;;;7.97;6.38;;;24.00;99.90;25.00;98503.00;;;;4920539;28;88257;-59
2022/06/10 04:25:23;;;;;;;8.18;6.00;;;24.20;99.90;24.90;98497.00;;;;4924899;28;87012;-59
2022/06/10 04:27:49;;;;;;;8.27;6.53;;;24.30;99.90;25.10;98512.00;;;;4907920;28;87100;-62
2022/06/10 04:30:29;;;;;;;8.25;6.00;;;24.40;99.90;25.60;98497.00;;;;4919393;28;89817;-62
2022/06/10 04:32:56;;;;;;;9.68;6.00;;;24.90;99.90;25.60;98499.00;;;;4924637;28;87822;-62
2022/06/10 04:35:23;;;;;;;10.90;7.05;;;24.90;99.90;25.60;98505.00;;;;4924860;28;87114;-66
2022/06/10 04:37:51;;;;;;;8.40;6.13;;;24.90;99.90;25.20;98510.00;;;;4907426;28;87041;-62
2022/06/10 04:40:26;;;;;;;10.80;6.60;;;24.60;99.90;25.20;98512.00;;;;4923477;28;88598;-61
2022/06/10 04:42:54;;;;;;;7.28;5.68;;;24.60;99.90;25.70;98499.00;;;;4924599;28;88505;-63
2022/06/10 04:45:27;;;;;;;11.43;5.82;;;25.00;99.90;25.90;98518.00;;;;4924824;28;86944;-62
2022/06/10 04:47:54;;;;;;;6.93;5.60;;;25.20;99.90;26.40;98513.00;;;;4925217;28;87277;-61
2022/06/10 04:50:24;;;;;;;8.75;5.85;;;25.50;99.90;25.40;98511.00;;;;4924708;28;87628;-61
2022/06/10 04:52:51;;;;;;;7.40;5.97;;;24.80;99.90;24.90;98514.00;;;;4924864;28;87398;-62
2022/06/10 04:55:19;;;;;;;8.57;6.63;;;24.50;99.90;24.60;98523.00;;;;4925342;28;86936;-62
2022/06/10 04:57:46;;;;;;;11.23;6.25;;;24.10;99.90;24.30;98514.00;;;;4917317;28;86373;-60
2022/06/10 05:00:26;;;;;;;9.27;6.75;;;23.90;99.90;24.20;98504.00;;;;4924693;28;88741;-62
2022/06/10 05:02:53;;;;;;;8.38;6.28;;;23.90;99.90;24.00;98514.00;;;;4922956;28;88576;-61
2022/06/10 05:05:20;;;;;;;12.68;6.63;;;23.60;99.90;24.20;98509.00;;;;4924194;28;88008;-61
2022/06/10 05:07:46;;;;;;;10.45;6.38;;;23.70;99.90;24.60;98518.00;;;;4924463;28;86954;-63
2022/06/10 05:10:15;;;;;;;8.32;6.18;;;24.00;99.90;24.70;98529.00;;;;4924312;28;88343;-61
2022/06/10 05:12:44;;;;;;;7.43;5.50;;;24.10;99.90;24.60;98516.00;;;;4923746;28;88460;-61
2022/06/10 05:15:11;;;;;;;6.85;5.40;;;24.00;99.90;25.30;98530.00;;;;4924386;28;87009;-61
2022/06/10 05:17:38;;;;;;;6.65;5.90;;;24.50;99.90;24.80;98548.00;;;;4907037;28;87117;-61
2022/06/10 05:20:05;;;;;;;8.40;6.47;;;24.20;99.90;25.10;98527.00;;;;4924205;28;88005;-61
2022/06/10 05:22:31;;;;;;;8.05;6.20;;;24.60;99.90;24.60;98522.00;;;;4923830;28;87294;-61
2022/06/10 05:24:57;;;;;;;7.13;6.03;;;24.10;99.90;25.10;98536.00;;;;4924108;28;87086;-59
2022/06/10 05:27:23;;;;;;;8.55;5.78;;;24.50;99.90;25.50;98526.00;;;;4923835;28;87089;-59
2022/06/10 05:29:49;;;;;;;6.35;5.43;;;25.00;99.90;25.90;98530.00;;;;4923069;28;88616;-58
2022/06/10 05:32:16;;;;;;;6.97;6.20;;;25.20;99.90;25.40;98542.00;;;;4923106;28;88474;-59
2022/06/10 05:34:44;;;;;;;7.00;5.75;;;24.80;99.90;25.90;98538.00;;;;4923770;28;87101;-59
2022/06/10 05:37:15;;;;;;;10.45;6.68;;;25.30;99.90;25.60;98534.00;;;;4921223;28;87106;-59
2022/06/10 05:39:41;;;;;;;8.60;6.18;;;25.10;99.90;25.90;98534.00;;;;4913740;28;87786;-59
2022/06/10 05:42:09;;;;;;;8.35;5.63;;;25.30;99.90;25.90;98531.00;;;;4886695;28;88417;-59
2022/06/10 05:45:02;;;;;;;11.57;6.18;;;25.20;99.90;25.30;98535.00;;;;4904153;28;87053;-59
2022/06/10 05:47:33;;;;;;;11.98;6.40;;;24.90;99.90;25.30;98542.00;;;;4900297;28;89792;-59
2022/06/10 05:50:06;;;;;;;8.43;6.32;;;25.00;99.90;25.50;98524.00;;;;4904141;28;87498;-59
2022/06/10 05:52:32;;;;;;;7.38;6.38;;;25.00;99.90;25.50;98537.00;;;;4904360;28;87621;-59
2022/06/10 05:55:03;;;;;;;9.55;6.75;;;25.00;99.90;24.90;98542.00;;;;4903848;28;87982;-59
2022/06/10 05:57:30;;;;;;;7.40;6.60;;;24.50;99.90;24.10;98556.00;;;;4903977;28;87649;-59
2022/06/10 05:59:57;;;;;;;8.85;7.20;;;23.90;99.90;24.30;98547.00;;;;4904096;28;87583;-59
2022/06/10 06:02:24;;;;;;;8.93;6.40;;;24.00;99.90;25.30;98542.00;;;;4903626;28;87364;-60
2022/06/10 06:04:51;;;;;;;9.70;6.30;;;24.60;99.90;25.90;98544.00;;;;4903919;28;87026;-59
2022/06/10 06:07:25;;;;;;;7.78;6.93;;;25.10;99.90;26.00;98547.00;;;;4904227;28;87074;-60
2022/06/10 06:09:53;;;;;;;9.88;6.40;;;25.30;99.90;25.70;98549.00;;;;4903125;28;88727;-60
2022/06/10 06:12:21;;;;;;;10.00;7.00;;;25.20;99.90;26.00;98545.00;;;;4886474;28;87343;-60
2022/06/10 06:14:47;;;;;;;9.82;6.68;;;25.30;99.90;25.60;98538.00;;;;4903669;28;87796;-61
2022/06/10 06:17:16;;;;;;;8.93;6.72;;;25.00;99.90;26.20;98542.00;;;;4886985;28;87007;-59
2022/06/10 06:19:42;;;;;;;10.90;6.47;;;25.50;99.90;26.40;98536.00;;;;4902820;28;88264;-59
2022/06/10 06:22:09;;;;;;;11.13;6.28;;;25.60;99.90;26.30;98551.00;;;;4903909;28;88333;-59
2022/06/10 06:24:37;;;;;;;10.27;6.82;;;25.60;99.90;26.00;98548.00;;;;4903727;28;87281;-59
2022/06/10 06:27:04;;;;;;;9.40;6.90;;;25.50;99.90;25.90;98542.00;;;;4903340;28;87115;-59
2022/06/10 06:29:30;;;;;;;10.75;7.00;;;25.20;99.90;26.00;98547.00;;;;4885836;28;88302;-59
2022/06/10 06:31:56;;;;;;;10.15;6.68;;;25.50;99.90;26.10;98549.00;;;;4903238;28;87527;-60
2022/06/10 06:34:25;;;;;;;10.80;7.03;;;25.50;99.90;25.80;98554.00;;;;4903366;28;87066;-59
2022/06/10 06:36:54;;;;;;;11.32;7.00;;;25.20;99.90;25.20;98547.00;;;;4901671;28;86361;-60
2022/06/10 06:39:23;;;;;;;10.55;6.57;;;24.70;99.90;25.20;98545.00;;;;4885065;28;87934;-60
2022/06/10 06:41:52;;;;;;;15.88;7.32;;;24.80;99.90;24.80;98535.00;;;;4901585;28;88502;-60
2022/06/10 06:44:30;;;;;;;9.73;6.65;;;24.40;99.90;24.50;98530.00;;;;4899945;28;87949;-59
2022/06/10 06:46:56;;;;;;;10.40;7.30;;;24.20;99.90;24.70;98543.00;;;;4903136;28;87095;-59
2022/06/10 06:49:26;;;;;;;11.10;7.20;;;24.40;99.90;24.50;98529.00;;;;4902972;28;89231;-60
2022/06/10 06:51:54;;;;;;;9.73;7.95;;;24.20;99.90;24.40;98520.00;;;;4903067;28;87873;-60
2022/06/10 06:54:20;;;;;;;8.93;6.90;;;24.10;99.90;24.30;98527.00;;;;4904157;28;86930;-59
2022/06/10 06:56:48;;;;;;;9.00;7.50;;;24.00;99.90;24.10;98542.00;;;;4903739;28;87373;-59
2022/06/10 06:59:14;;;;;;;9.10;7.30;;;23.90;99.90;24.20;98518.00;;;;4903515;28;88377;-60
2022/06/10 07:01:40;;;;;;;9.77;7.05;;;24.00;99.90;24.20;98528.00;;;;4886524;28;88721;-60
2022/06/10 07:04:07;;;;;;;9.65;7.22;;;23.90;99.90;24.10;98538.00;;;;4903732;28;87424;-60
2022/06/10 07:06:35;;;;;;;10.57;7.43;;;23.90;99.90;24.60;98528.00;;;;4903531;28;87093;-59
2022/06/10 07:09:05;;;;;;;8.75;7.07;;;24.30;99.90;24.80;98543.00;;;;4902764;28;88622;-60
2022/06/10 07:11:32;;;;;;;9.93;7.20;;;24.40;99.90;24.40;98549.00;;;;4902708;28;89424;-59
2022/06/10 07:13:59;;;;;;;9.20;7.05;;;24.20;99.90;24.50;98536.00;;;;4902426;28;87492;-60
2022/06/10 07:16:25;;;;;;;11.73;6.80;;;24.10;99.90;24.60;98538.00;;;;4903211;28;87113;-60
2022/06/10 07:18:52;;;;;;;8.60;7.13;;;24.30;99.90;24.60;98547.00;;;;4903125;28;87632;-59
2022/06/10 07:21:18;;;;;;;11.82;7.30;;;24.40;99.90;24.10;98541.00;;;;4902618;28;87379;-59
2022/06/10 07:23:45;;;;;;;7.45;6.75;;;23.90;99.90;24.30;98529.00;;;;4902505;28;87588;-60
2022/06/10 07:26:11;;;;;;;12.23;7.35;;;24.10;99.90;24.90;98536.00;;;;4902714;28;86325;-60
2022/06/10 07:28:37;;;;;;;8.95;6.97;;;24.60;99.90;24.90;98540.00;;;;4903370;28;87715;-60
2022/06/10 07:31:03;;;;;;;7.75;6.95;;;24.50;99.90;24.50;98549.00;;;;4902793;28;87164;-59
2022/06/10 07:33:30;;;;;;;7.53;6.65;;;24.20;99.90;24.60;98543.00;;;;4884550;28;88714;-60
2022/06/10 07:35:56;;;;;;;12.23;7.30;;;24.30;99.90;24.70;98543.00;;;;4882717;28;87320;-60
2022/06/10 07:38:24;;;;;;;7.95;6.30;;;24.40;99.90;24.90;98543.00;;;;4901679;28;87548;-59
2022/06/10 07:43:35;;;;;;;8.88;6.75;;;24.70;99.90;24.50;98545.00;;;;4904454;28;87005;-60
2022/06/10 07:46:04;;;;;;;15.70;7.13;;;24.30;99.90;24.50;98548.00;;;;4890667;28;87375;-60
2022/06/10 07:48:30;;;;;;;13.48;7.72;;;24.20;99.90;24.30;98537.00;;;;4905531;28;87057;-60
2022/06/10 07:50:57;;;;;;;8.82;6.95;;;24.00;99.90;24.80;98541.00;;;;4902799;28;87271;-60
2022/06/10 07:53:23;;;;;;;11.23;7.43;;;24.50;99.90;24.90;98530.00;;;;4905391;28;87146;-59
2022/06/10 07:55:49;;;;;;;10.38;7.75;;;24.60;99.90;24.90;98544.00;;;;4905741;28;87117;-60
2022/06/10 07:58:17;;;;;;;7.40;6.55;;;24.60;99.90;24.60;98534.00;;;;4883973;28;89377;-59
